Time;durP1;ratioP1;P1;durP2;ratioP2;P2;SDS_P1;SDS_P2;PMS_P1;PMS_P2;Temp;Humidity;BMP_temperature;BMP_pressure;BME280_temperature;BME280_humidity;BME280_pressure;Samples;Min_cycle;Max_cycle;Signal;HPM_P1;HPM_P2
2021/05/18 00:00:18;;;;;;;;;;;;;;;9.20;96.47;95605.75;1281601;23;19897;-64
2021/05/18 00:00:48;;;;;;;;;;;;;;;9.20;96.67;95602.28;1281775;23;19920;-63
2021/05/18 00:01:18;;;;;;;;;;;;;;;9.22;96.91;95608.19;1281584;23;20290;-63
2021/05/18 00:01:48;;;;;;;;;;;;;;;9.20;96.08;95596.97;1281470;23;19892;-63
2021/05/18 00:02:19;;;;;;;;;;;;;;;9.19;96.06;95604.16;1281231;23;19896;-63
2021/05/18 00:02:49;;;;;;;;;;;;;;;9.18;96.21;95597.25;1281323;23;20318;-63
2021/05/18 00:03:19;;;;;;;;;;;;;;;9.21;96.67;95602.00;1280746;23;19911;-63
2021/05/18 00:03:49;;;;;;;;;;;;;;;9.22;96.48;95602.84;1281094;23;20233;-64
2021/05/18 00:04:20;;;;;;;;;;;;;;;9.20;96.56;95605.75;1281474;23;19897;-63
2021/05/18 00:04:50;;;;;;;;;;;;;;;9.22;96.60;95602.84;1281277;23;19896;-62
2021/05/18 00:05:21;;;;;;;;;;;;;;;9.23;96.69;95601.78;1281447;23;19908;-63
2021/05/18 00:05:52;;;;;;;;;;;;;;;9.23;96.75;95597.22;1281669;23;19954;-62
2021/05/18 00:06:22;;;;;;;;;;;;;;;9.21;97.06;95593.22;1281765;23;20206;-63
2021/05/18 00:06:52;;;;;;;;;;;;;;;9.21;96.80;95602.00;1281472;23;19897;-63
2021/05/18 00:07:23;;;;;;;;;;;;;;;9.19;96.69;95603.38;1281124;23;19896;-62
2021/05/18 00:07:58;;;;;;;;;;;;;;;9.20;96.61;95604.97;1274512;23;19897;-64
2021/05/18 00:08:29;;;;;;;;;;;;;;;9.21;96.25;95602.00;1274766;23;19896;-67
2021/05/18 00:11:44;;;;;;;;;;;;;;;9.20;96.61;95612.97;1281368;23;19914;-63
2021/05/18 00:12:14;;;;;;;;;;;;;;;9.22;95.73;95606.31;1281625;23;19979;-64
2021/05/18 00:12:45;;;;;;;;;;;;;;;9.23;96.35;95617.75;1280968;23;19896;-64
2021/05/18 00:13:15;;;;;;;;;;;;;;;9.22;96.28;95616.97;1275058;23;19916;-64
2021/05/18 00:13:46;;;;;;;;;;;;;;;9.23;95.64;95607.09;1275097;23;19897;-63
2021/05/18 00:14:21;;;;;;;;;;;;;;;9.23;95.72;95607.91;1274921;23;19932;-63
2021/05/18 00:14:51;;;;;;;;;;;;;;;9.23;96.04;95599.91;1279547;23;19896;-62
2021/05/18 00:15:21;;;;;;;;;;;;;;;9.24;95.93;95611.34;1278675;23;19911;-62
2021/05/18 00:15:55;;;;;;;;;;;;;;;9.21;94.87;95612.69;1272880;23;19904;-63
2021/05/18 00:16:25;;;;;;;;;;;;;;;9.23;94.92;95610.56;1272892;23;19908;-62
2021/05/18 00:16:56;;;;;;;;;;;;;;;9.26;95.14;95611.88;1273459;23;20354;-62
2021/05/18 00:17:27;;;;;;;;;;;;;;;9.26;95.39;95611.88;1279029;23;19905;-62
2021/05/18 00:17:58;;;;;;;;;;;;;;;9.25;95.29;95611.06;1279355;23;19907;-62
2021/05/18 00:18:28;;;;;;;;;;;;;;;9.24;95.58;95614.03;1279209;23;19911;-62
2021/05/18 00:18:58;;;;;;;;;;;;;;;9.23;95.93;95612.44;1278808;23;19901;-62
2021/05/18 00:19:29;;;;;;;;;;;;;;;9.24;95.67;95614.81;1279023;23;19911;-62
2021/05/18 00:19:59;;;;;;;;;;;;;;;9.24;95.97;95609.50;1278864;23;19900;-62
2021/05/18 00:20:29;;;;;;;;;;;;;;;9.24;95.33;95614.03;1272618;23;20362;-62
2021/05/18 00:20:59;;;;;;;;;;;;;;;9.22;95.64;95614.31;1278935;23;19900;-62
2021/05/18 00:21:30;;;;;;;;;;;;;;;9.24;95.87;95616.69;1278983;23;19908;-62
2021/05/18 00:22:00;;;;;;;;;;;;;;;9.20;95.48;95621.75;1278854;23;20330;-62
2021/05/18 00:22:30;;;;;;;;;;;;;;;9.20;96.03;95616.41;1279290;23;19951;-62
2021/05/18 00:23:04;;;;;;;;;;;;;;;9.21;95.64;95615.34;1279283;23;19900;-62
2021/05/18 00:23:34;;;;;;;;;;;;;;;9.23;96.14;95620.44;1279287;23;19988;-62
2021/05/18 00:24:05;;;;;;;;;;;;;;;9.23;95.93;95623.09;1279312;23;19900;-62
2021/05/18 00:24:35;;;;;;;;;;;;;;;9.23;96.20;95621.22;1279307;23;19978;-62
2021/05/18 00:25:05;;;;;;;;;;;;;;;9.21;95.78;95612.69;1279170;23;20310;-62
2021/05/18 00:25:36;;;;;;;;;;;;;;;9.19;95.74;95620.16;1279008;23;20002;-63
2021/05/18 00:26:08;;;;;;;;;;;;;;;9.19;96.05;95616.69;1278926;23;20361;-62
2021/05/18 00:26:38;;;;;;;;;;;;;;;9.20;96.00;95627.09;1278951;23;20241;-62
2021/05/18 00:27:09;;;;;;;;;;;;;;;9.22;96.01;95624.97;1278893;23;19907;-62
2021/05/18 00:27:39;;;;;;;;;;;;;;;9.19;95.09;95619.38;1279317;23;19958;-62
2021/05/18 00:28:10;;;;;;;;;;;;;;;9.19;94.99;95616.69;1279279;23;19900;-62
2021/05/18 00:28:40;;;;;;;;;;;;;;;9.17;95.23;95619.66;1279189;23;19908;-62
2021/05/18 00:29:10;;;;;;;;;;;;;;;9.13;96.19;95621.25;1279171;23;19908;-62
2021/05/18 00:29:40;;;;;;;;;;;;;;;9.17;95.97;95624.19;1279225;23;19950;-62
2021/05/18 00:30:11;;;;;;;;;;;;;;;9.16;95.23;95630.56;1279198;23;19904;-62
2021/05/18 00:30:41;;;;;;;;;;;;;;;9.16;94.93;95617.22;1279169;23;19926;-62
2021/05/18 00:31:12;;;;;;;;;;;;;;;9.16;95.21;95620.69;1278881;23;19900;-62
2021/05/18 00:31:42;;;;;;;;;;;;;;;9.17;95.63;95618.84;1279088;23;19908;-62
2021/05/18 00:32:12;;;;;;;;;;;;;;;9.18;95.71;95625.78;1278793;23;19901;-62
2021/05/18 00:32:42;;;;;;;;;;;;;;;9.18;95.58;95626.56;1278917;23;19908;-62
2021/05/18 00:33:14;;;;;;;;;;;;;;;9.13;96.08;95617.78;1278908;23;20349;-62
2021/05/18 00:33:44;;;;;;;;;;;;;;;9.13;96.58;95625.78;1279000;23;20337;-62
2021/05/18 00:34:14;;;;;;;;;;;;;;;9.17;96.72;95624.97;1279244;23;19949;-63
2021/05/18 00:34:45;;;;;;;;;;;;;;;9.20;95.90;95623.63;1279243;23;19904;-62
2021/05/18 00:35:15;;;;;;;;;;;;;;;9.18;95.93;95626.56;1279216;23;19923;-62
2021/05/18 00:35:45;;;;;;;;;;;;;;;9.18;96.38;95625.78;1279377;23;19900;-62
2021/05/18 00:36:16;;;;;;;;;;;;;;;9.16;96.32;95626.03;1279240;23;19904;-62
2021/05/18 00:36:46;;;;;;;;;;;;;;;9.20;96.25;95620.97;1279270;23;19900;-63
2021/05/18 00:37:16;;;;;;;;;;;;;;;9.15;95.00;95612.97;1279247;23;19903;-62
2021/05/18 00:37:46;;;;;;;;;;;;;;;9.13;94.67;95629.25;1279256;23;19908;-62
2021/05/18 00:38:17;;;;;;;;;;;;;;;9.11;95.48;95626.84;1279234;23;19906;-62
2021/05/18 00:38:47;;;;;;;;;;;;;;;9.13;95.92;95621.25;1279257;23;19912;-62
2021/05/18 00:39:18;;;;;;;;;;;;;;;9.16;95.95;95625.22;1279202;23;20095;-62
2021/05/18 00:39:49;;;;;;;;;;;;;;;9.13;96.30;95618.59;1278717;23;19947;-62
2021/05/18 00:40:19;;;;;;;;;;;;;;;9.15;96.38;95618.31;1278783;23;19907;-62
2021/05/18 00:40:49;;;;;;;;;;;;;;;9.14;96.08;95620.16;1278961;23;19906;-62
2021/05/18 00:41:19;;;;;;;;;;;;;;;9.13;96.81;95626.56;1278803;23;20334;-62
2021/05/18 00:41:50;;;;;;;;;;;;;;;9.12;96.70;95625.00;1279267;23;20314;-62
2021/05/18 00:42:20;;;;;;;;;;;;;;;9.09;95.28;95623.63;1279189;23;19904;-62
2021/05/18 00:42:52;;;;;;;;;;;;;;;9.09;95.10;95630.84;1279275;23;19979;-62
2021/05/18 00:43:22;;;;;;;;;;;;;;;9.14;95.52;95628.16;1279132;23;19978;-62
2021/05/18 00:43:52;;;;;;;;;;;;;;;9.13;95.35;95629.25;1279264;23;19953;-62
2021/05/18 00:44:22;;;;;;;;;;;;;;;9.13;95.24;95625.78;1279117;23;19938;-62
2021/05/18 00:44:53;;;;;;;;;;;;;;;9.13;95.80;95626.56;1279187;23;19908;-62
2021/05/18 00:45:27;;;;;;;;;;;;;;;9.13;96.09;95629.25;1279238;23;20258;-62
2021/05/18 00:45:58;;;;;;;;;;;;;;;9.13;95.63;95634.56;1279264;23;20211;-62
2021/05/18 00:46:29;;;;;;;;;;;;;;;9.16;95.78;95627.91;1279220;23;19907;-62
2021/05/18 00:46:59;;;;;;;;;;;;;;;9.16;95.69;95623.34;1279165;23;19979;-62
2021/05/18 00:47:29;;;;;;;;;;;;;;;9.13;95.62;95629.25;1279276;23;20034;-62
2021/05/18 00:47:59;;;;;;;;;;;;;;;9.11;95.86;95620.72;1279183;23;19907;-62
2021/05/18 00:48:30;;;;;;;;;;;;;;;9.13;96.41;95628.44;1278953;23;19909;-62
2021/05/18 00:49:00;;;;;;;;;;;;;;;9.13;96.50;95626.56;1279243;23;19901;-59
2021/05/18 00:49:30;;;;;;;;;;;;;;;9.12;95.77;95635.66;1279164;23;19908;-61
2021/05/18 00:50:01;;;;;;;;;;;;;;;9.13;96.16;95626.56;1279181;23;19900;-62
2021/05/18 00:50:31;;;;;;;;;;;;;;;9.13;96.20;95629.25;1279196;23;19936;-62
2021/05/18 00:51:04;;;;;;;;;;;;;;;9.15;95.98;95626.31;1279247;23;19906;-63
2021/05/18 00:51:34;;;;;;;;;;;;;;;9.15;95.93;95631.63;1278993;23;19912;-63
2021/05/18 00:52:07;;;;;;;;;;;;;;;9.13;96.06;95629.25;1279132;23;19900;-63
2021/05/18 00:52:37;;;;;;;;;;;;;;;9.15;96.49;95623.63;1279198;23;19912;-62
2021/05/18 00:53:08;;;;;;;;;;;;;;;9.10;95.57;95632.44;1279302;23;20207;-63
2021/05/18 00:53:38;;;;;;;;;;;;;;;9.08;96.08;95638.03;1279068;23;20341;-62
2021/05/18 00:54:17;;;;;;;;;;;;;;;9.12;95.76;95632.97;1279245;23;19901;-63
2021/05/18 00:54:59;;;;;;;;;;;;;;;9.10;95.92;95629.78;1278970;23;19908;-63
2021/05/18 00:56:22;;;;;;;;;;;;;;;9.11;95.54;95634.06;1278833;23;19962;-62
2021/05/18 00:58:35;;;;;;;;;;;;;;;9.17;95.65;95634.84;1278827;23;19908;-63
2021/05/18 00:59:05;;;;;;;;;;;;;;;9.18;95.47;95636.44;1279508;23;19911;-63
2021/05/18 00:59:35;;;;;;;;;;;;;;;9.14;96.25;95635.38;1279420;23;19922;-63
2021/05/18 01:00:06;;;;;;;;;;;;;;;9.16;96.39;95638.56;1279315;23;19904;-63
2021/05/18 01:00:36;;;;;;;;;;;;;;;9.14;95.46;95628.16;1279048;23;20129;-63
2021/05/18 01:01:20;;;;;;;;;;;;;;;9.13;95.00;95637.25;1279925;23;19911;-63
2021/05/18 01:01:51;;;;;;;;;;;;;;;9.16;95.32;95634.03;1279659;23;19904;-63
2021/05/18 01:02:21;;;;;;;;;;;;;;;9.15;95.88;95637.75;1278712;23;19911;-62
2021/05/18 01:02:52;;;;;;;;;;;;;;;9.13;95.90;95637.25;1278810;23;20314;-63
2021/05/18 01:03:22;;;;;;;;;;;;;;;9.14;95.73;95636.16;1278835;23;19946;-61
2021/05/18 01:03:52;;;;;;;;;;;;;;;9.11;95.31;95640.19;1278828;23;19905;-61
2021/05/18 01:04:23;;;;;;;;;;;;;;;9.14;95.54;95635.38;1279229;23;19906;-61
2021/05/18 01:05:07;;;;;;;;;;;;;;;9.11;95.82;95631.41;1279224;23;19927;-61
2021/05/18 01:06:30;;;;;;;;;;;;;;;9.09;95.55;95644.19;1279140;23;19904;-60
2021/05/18 01:07:00;;;;;;;;;;;;;;;9.08;96.56;95645.25;1278814;23;19908;-60
2021/05/18 01:07:30;;;;;;;;;;;;;;;9.10;96.50;95638.56;1278506;23;19932;-60
2021/05/18 01:08:02;;;;;;;;;;;;;;;9.15;96.48;95642.28;1278828;23;20342;-61
2021/05/18 01:08:33;;;;;;;;;;;;;;;9.09;96.03;95644.19;1278877;23;19928;-61
2021/05/18 01:09:09;;;;;;;;;;;;;;;9.04;96.34;95641.50;1279248;23;19911;-61
2021/05/18 01:09:39;;;;;;;;;;;;;;;9.04;96.62;95649.50;1279265;23;19983;-61
2021/05/18 01:10:09;;;;;;;;;;;;;;;9.05;96.72;95648.44;1279177;23;19905;-61
2021/05/18 01:10:40;;;;;;;;;;;;;;;9.04;96.16;95649.50;1279045;23;19900;-61
2021/05/18 01:11:10;;;;;;;;;;;;;;;9.06;95.82;95644.72;1279148;23;20306;-61
2021/05/18 01:11:41;;;;;;;;;;;;;;;9.05;95.62;95643.09;1279167;23;19901;-62
2021/05/18 01:12:12;;;;;;;;;;;;;;;9.05;95.70;95641.22;1279230;23;19908;-61
2021/05/18 01:12:42;;;;;;;;;;;;;;;9.07;95.47;95646.31;1278593;23;20302;-61
2021/05/18 01:13:12;;;;;;;;;;;;;;;9.06;95.78;95647.41;1278838;23;19904;-61
2021/05/18 01:13:43;;;;;;;;;;;;;;;9.05;95.88;95646.56;1278837;23;19966;-61
2021/05/18 01:14:17;;;;;;;;;;;;;;;9.07;95.98;95641.00;1278896;23;20363;-61
2021/05/18 01:14:47;;;;;;;;;;;;;;;9.04;95.46;95636.19;1279179;23;19950;-61
2021/05/18 01:15:18;;;;;;;;;;;;;;;9.02;95.45;95644.47;1278910;23;19910;-61
2021/05/18 01:15:48;;;;;;;;;;;;;;;9.00;95.29;95637.78;1279142;23;19942;-61
2021/05/18 01:16:18;;;;;;;;;;;;;;;9.00;95.65;95646.56;1279292;23;19896;-61
2021/05/18 01:16:49;;;;;;;;;;;;;;;9.00;96.67;95645.78;1279188;23;20360;-61
2021/05/18 01:17:19;;;;;;;;;;;;;;;9.02;96.04;95641.00;1278756;23;19896;-61
2021/05/18 01:17:49;;;;;;;;;;;;;;;9.00;95.90;95643.09;1278753;23;19909;-61
2021/05/18 01:18:20;;;;;;;;;;;;;;;9.00;95.96;95638.56;1278868;23;19928;-61
2021/05/18 01:18:50;;;;;;;;;;;;;;;9.00;95.88;95640.44;1278785;23;20308;-61
2021/05/18 01:19:23;;;;;;;;;;;;;;;9.03;96.47;95635.38;1279272;23;19978;-61
2021/05/18 01:19:54;;;;;;;;;;;;;;;9.04;96.14;95644.19;1279166;23;19908;-62
2021/05/18 01:20:24;;;;;;;;;;;;;;;9.04;96.21;95633.50;1278981;23;20365;-62
2021/05/18 01:20:55;;;;;;;;;;;;;;;9.07;96.11;95644.44;1279138;23;19935;-62
2021/05/18 01:21:25;;;;;;;;;;;;;;;9.07;96.25;95641.00;1278835;23;19950;-62
2021/05/18 01:21:57;;;;;;;;;;;;;;;9.06;96.09;95642.06;1278553;23;20034;-62
2021/05/18 01:22:28;;;;;;;;;;;;;;;9.03;95.98;95647.91;1278817;23;19896;-62
2021/05/18 01:22:58;;;;;;;;;;;;;;;9.04;97.42;95642.31;1278767;23;19908;-62
2021/05/18 01:23:28;;;;;;;;;;;;;;;9.04;97.14;95646.84;1278716;23;19896;-62
2021/05/18 01:23:59;;;;;;;;;;;;;;;9.05;96.98;95646.56;1279096;23;19963;-62
2021/05/18 01:24:29;;;;;;;;;;;;;;;9.02;97.00;95649.00;1272471;23;19896;-62
2021/05/18 01:24:59;;;;;;;;;;;;;;;9.02;97.06;95646.31;1272600;23;19915;-62
2021/05/18 01:25:29;;;;;;;;;;;;;;;9.00;97.39;95646.56;1272575;23;20261;-62
2021/05/18 01:26:00;;;;;;;;;;;;;;;8.97;96.38;95644.47;1272604;23;19909;-62
2021/05/18 01:26:30;;;;;;;;;;;;;;;8.99;96.45;95644.97;1280019;23;19896;-62
2021/05/18 01:27:01;;;;;;;;;;;;;;;8.97;96.49;95641.78;1280751;23;19923;-62
2021/05/18 01:27:31;;;;;;;;;;;;;;;8.99;96.72;95644.19;1280973;23;19892;-62
2021/05/18 01:28:01;;;;;;;;;;;;;;;8.97;96.79;95651.66;1281135;23;19908;-62
2021/05/18 01:28:32;;;;;;;;;;;;;;;8.96;96.81;95647.41;1280277;23;19897;-62
2021/05/18 01:29:03;;;;;;;;;;;;;;;8.98;96.79;95643.38;1279381;23;19915;-62
2021/05/18 01:29:33;;;;;;;;;;;;;;;9.00;96.73;95641.25;1279204;23;19966;-62
2021/05/18 01:30:04;;;;;;;;;;;;;;;9.01;96.29;95632.19;1279105;23;19896;-62
2021/05/18 01:30:34;;;;;;;;;;;;;;;9.01;96.60;95639.41;1284679;23;19896;-62
2021/05/18 01:31:05;;;;;;;;;;;;;;;8.98;96.31;95643.38;1284928;23;19912;-62
2021/05/18 01:31:35;;;;;;;;;;;;;;;9.00;96.49;95637.78;1284991;23;19896;-62
2021/05/18 01:32:08;;;;;;;;;;;;;;;9.00;96.43;95640.44;1285293;23;19896;-62
2021/05/18 01:32:40;;;;;;;;;;;;;;;8.98;96.50;95642.59;1279281;23;19923;-62
2021/05/18 01:33:10;;;;;;;;;;;;;;;8.95;96.50;95641.25;1279013;23;19942;-62
2021/05/18 01:33:41;;;;;;;;;;;;;;;8.93;96.70;95645.25;1279096;23;19903;-62
2021/05/18 01:34:11;;;;;;;;;;;;;;;8.90;96.65;95643.91;1278670;23;19918;-62
2021/05/18 01:34:41;;;;;;;;;;;;;;;8.95;96.68;95637.78;1278573;23;19897;-62
2021/05/18 01:35:12;;;;;;;;;;;;;;;8.93;96.82;95646.06;1278791;23;19897;-62
2021/05/18 01:35:42;;;;;;;;;;;;;;;8.92;96.08;95649.00;1278447;23;19912;-62
2021/05/18 01:36:15;;;;;;;;;;;;;;;8.90;95.92;95649.25;1279182;23;20034;-62
2021/05/18 01:36:46;;;;;;;;;;;;;;;8.94;96.17;95647.66;1280074;23;20364;-62
2021/05/18 01:37:16;;;;;;;;;;;;;;;8.92;96.13;95646.34;1281390;23;19931;-62
2021/05/18 01:37:47;;;;;;;;;;;;;;;8.90;95.93;95651.13;1280775;23;19915;-62
2021/05/18 01:38:21;;;;;;;;;;;;;;;8.88;95.87;95647.94;1281298;23;19915;-62
2021/05/18 01:39:03;;;;;;;;;;;;;;;8.88;96.52;95654.06;1281301;23;19999;-63
2021/05/18 01:42:49;;;;;;;;;;;;;;;8.89;96.52;95658.31;1279229;23;20329;-62
2021/05/18 01:43:20;;;;;;;;;;;;;;;8.83;96.74;95662.84;1279335;23;19936;-62
2021/05/18 01:43:54;;;;;;;;;;;;;;;8.85;97.00;95657.25;1279107;23;20211;-62
2021/05/18 01:44:24;;;;;;;;;;;;;;;8.89;96.78;95660.19;1278556;23;19908;-62
2021/05/18 01:44:54;;;;;;;;;;;;;;;8.88;96.81;95663.91;1272438;23;20334;-62
2021/05/18 01:45:25;;;;;;;;;;;;;;;8.88;97.24;95661.25;1272663;23;20282;-62
2021/05/18 01:45:56;;;;;;;;;;;;;;;8.89;96.54;95660.19;1272704;23;19981;-62
2021/05/18 01:46:26;;;;;;;;;;;;;;;8.88;97.32;95661.25;1278813;23;19908;-62
2021/05/18 01:46:56;;;;;;;;;;;;;;;8.89;96.81;95666.31;1279113;23;19904;-62
2021/05/18 01:47:27;;;;;;;;;;;;;;;8.87;96.76;95657.78;1279166;23;19909;-62
2021/05/18 01:47:58;;;;;;;;;;;;;;;8.87;96.46;95662.31;1279099;23;20314;-62
2021/05/18 01:48:34;;;;;;;;;;;;;;;8.87;96.19;95662.31;1279089;23;19916;-62
2021/05/18 01:49:06;;;;;;;;;;;;;;;8.87;95.99;95659.66;1279111;23;19951;-62
2021/05/18 01:49:36;;;;;;;;;;;;;;;8.83;96.13;95662.03;1279054;23;19943;-62
2021/05/18 01:50:06;;;;;;;;;;;;;;;8.80;96.81;95660.72;1279085;23;19908;-62
2021/05/18 01:50:37;;;;;;;;;;;;;;;8.81;97.35;95667.66;1279107;23;19983;-62
2021/05/18 01:51:07;;;;;;;;;;;;;;;8.81;96.58;95664.97;1278967;23;19911;-62
2021/05/18 01:51:38;;;;;;;;;;;;;;;8.80;96.44;95659.91;1279123;23;19907;-62
2021/05/18 01:52:09;;;;;;;;;;;;;;;8.82;96.33;95666.56;1279048;23;19999;-62
2021/05/18 01:52:39;;;;;;;;;;;;;;;8.81;96.73;95664.97;1279144;23;19907;-62
2021/05/18 01:53:10;;;;;;;;;;;;;;;8.82;96.24;95666.56;1279123;23;20250;-62
2021/05/18 01:53:40;;;;;;;;;;;;;;;8.77;96.97;95657.78;1278660;23;19971;-62
2021/05/18 01:54:17;;;;;;;;;;;;;;;8.74;97.19;95660.97;1278765;23;19912;-62
2021/05/18 01:54:50;;;;;;;;;;;;;;;8.73;97.45;95667.38;1278731;23;19935;-62
2021/05/18 01:55:28;;;;;;;;;;;;;;;8.75;97.42;95659.91;1278826;23;19946;-62
2021/05/18 01:56:17;;;;;;;;;;;;;;;8.73;96.81;95662.03;1279159;23;19901;-62
2021/05/18 01:57:21;;;;;;;;;;;;;;;8.72;96.61;95665.78;1279117;23;19935;-62
2021/05/18 01:57:51;;;;;;;;;;;;;;;8.71;96.74;95664.97;1279164;23;20392;-62
2021/05/18 01:58:23;;;;;;;;;;;;;;;8.70;96.85;95663.38;1279050;23;19923;-62
2021/05/18 01:58:53;;;;;;;;;;;;;;;8.71;97.03;95661.53;1279120;23;20226;-62
2021/05/18 01:59:24;;;;;;;;;;;;;;;8.70;96.61;95665.22;1272379;23;19901;-61
2021/05/18 01:59:54;;;;;;;;;;;;;;;8.73;96.75;95662.03;1272491;23;19905;-62
2021/05/18 02:00:25;;;;;;;;;;;;;;;8.76;96.61;95664.19;1272547;23;20229;-62
2021/05/18 02:00:56;;;;;;;;;;;;;;;8.74;97.56;95666.31;1272888;23;19901;-62
2021/05/18 02:01:26;;;;;;;;;;;;;;;8.75;97.19;95662.56;1279200;23;19931;-62
2021/05/18 02:01:57;;;;;;;;;;;;;;;8.76;97.55;95657.00;1279083;23;20191;-62
2021/05/18 02:02:27;;;;;;;;;;;;;;;8.75;97.42;95663.41;1279094;23;19900;-62
2021/05/18 02:02:58;;;;;;;;;;;;;;;8.77;97.91;95668.44;1279072;23;19907;-62
2021/05/18 02:03:28;;;;;;;;;;;;;;;8.75;96.73;95660.72;1279099;23;19931;-62
2021/05/18 02:03:58;;;;;;;;;;;;;;;8.78;96.68;95665.50;1279076;23;20325;-62
2021/05/18 02:04:31;;;;;;;;;;;;;;;8.80;97.29;95666.06;1279073;23;19927;-62
2021/05/18 02:05:03;;;;;;;;;;;;;;;8.79;97.10;95661.78;1278962;23;19900;-62
2021/05/18 02:05:35;;;;;;;;;;;;;;;8.79;97.06;95663.63;1279139;23;20273;-62
2021/05/18 02:06:05;;;;;;;;;;;;;;;8.77;96.32;95663.13;1279024;23;19907;-62
2021/05/18 02:06:36;;;;;;;;;;;;;;;8.75;96.27;95663.41;1279076;23;19911;-62
2021/05/18 02:07:08;;;;;;;;;;;;;;;8.77;96.51;95658.59;1278970;23;20237;-62
2021/05/18 02:07:38;;;;;;;;;;;;;;;8.77;96.69;95660.44;1279071;23;20289;-62
2021/05/18 02:08:13;;;;;;;;;;;;;;;8.77;96.42;95661.25;1279048;23;19900;-62
2021/05/18 02:08:43;;;;;;;;;;;;;;;8.81;96.52;95664.97;1279013;23;19900;-62
2021/05/18 02:09:14;;;;;;;;;;;;;;;8.80;96.81;95668.72;1279105;23;19908;-62
2021/05/18 02:09:44;;;;;;;;;;;;;;;8.82;96.82;95665.78;1278550;23;20002;-62
2021/05/18 02:10:16;;;;;;;;;;;;;;;8.79;97.34;95666.31;1278676;23;19915;-62
2021/05/18 02:10:46;;;;;;;;;;;;;;;8.80;97.59;95662.56;1278695;23;19931;-62
2021/05/18 02:11:16;;;;;;;;;;;;;;;8.77;97.79;95665.78;1278623;23;19912;-62
2021/05/18 02:11:48;;;;;;;;;;;;;;;8.75;97.57;95668.72;1278799;23;19971;-62
2021/05/18 02:12:18;;;;;;;;;;;;;;;8.76;97.36;95667.66;1279109;23;19908;-62
2021/05/18 02:12:49;;;;;;;;;;;;;;;8.74;98.00;95677.75;1279096;23;20299;-62
2021/05/18 02:13:19;;;;;;;;;;;;;;;8.77;98.04;95665.78;1279000;23;19908;-62
2021/05/18 02:13:51;;;;;;;;;;;;;;;8.78;97.92;95670.84;1279062;23;19901;-62
2021/05/18 02:14:32;;;;;;;;;;;;;;;8.81;97.78;95672.97;1278948;23;19908;-62
2021/05/18 02:15:55;;;;;;;;;;;;;;;8.80;97.22;95678.56;1278965;23;19970;-62
2021/05/18 02:16:06;;;;;;;;;;;;;;;8.76;97.69;95670.31;1263350;23;19948;-62
2021/05/18 02:16:40;;;;;;;;;;;;;;;8.72;97.44;95679.09;1279061;23;19970;-61
2021/05/18 02:17:31;;;;;;;;;;;;;;;8.73;97.56;95670.84;1278957;23;19896;-62
2021/05/18 02:18:18;;;;;;;;;;;;;;;8.75;97.88;95675.88;1278608;23;19896;-62
2021/05/18 02:18:59;;;;;;;;;;;;;;;8.79;98.32;95676.97;1278802;23;19994;-62
2021/05/18 02:20:30;;;;;;;;;;;;;;;8.78;98.70;95676.16;1278664;23;19908;-62
2021/05/18 02:20:39;;;;;;;;;;;;;;;8.83;98.48;95681.50;1266919;23;19916;-63
2021/05/18 02:21:24;;;;;;;;;;;;;;;8.81;98.60;95675.66;1278994;23;19975;-62
2021/05/18 02:22:09;;;;;;;;;;;;;;;8.79;99.07;95680.41;1278983;23;19943;-62
2021/05/18 02:25:03;;;;;;;;;;;;;;;8.73;99.22;95683.34;1278614;23;19903;-62
2021/05/18 02:25:34;;;;;;;;;;;;;;;8.74;99.30;95679.63;1272441;23;19988;-62
2021/05/18 02:26:04;;;;;;;;;;;;;;;8.72;99.92;95687.09;1272493;23;19897;-62
2021/05/18 02:26:34;;;;;;;;;;;;;;;8.71;100.00;95683.63;1274320;23;20308;-62
2021/05/18 02:27:05;;;;;;;;;;;;;;;8.72;99.92;95690.56;1272315;23;19897;-62
2021/05/18 02:27:35;;;;;;;;;;;;;;;8.73;100.00;95676.16;1278528;23;19931;-63
2021/05/18 02:28:07;;;;;;;;;;;;;;;8.70;100.00;95678.53;1278477;23;19931;-63
2021/05/18 02:28:38;;;;;;;;;;;;;;;8.70;100.00;95687.38;1278581;23;19897;-62
2021/05/18 02:29:08;;;;;;;;;;;;;;;8.70;100.00;95683.88;1278843;23;19939;-61
2021/05/18 02:29:38;;;;;;;;;;;;;;;8.63;99.90;95684.16;1278803;23;19896;-61
2021/05/18 02:30:09;;;;;;;;;;;;;;;8.65;100.00;95684.69;1278858;23;19900;-61
2021/05/18 02:30:40;;;;;;;;;;;;;;;8.66;100.00;95677.50;1278965;23;20018;-61
2021/05/18 02:31:10;;;;;;;;;;;;;;;8.65;100.00;95692.69;1278907;23;19896;-62
2021/05/18 02:31:41;;;;;;;;;;;;;;;8.64;100.00;95690.28;1278872;23;19928;-63
2021/05/18 02:32:11;;;;;;;;;;;;;;;8.63;100.00;95684.16;1278336;23;19900;-63
2021/05/18 02:32:41;;;;;;;;;;;;;;;8.63;100.00;95678.81;1278775;23;19924;-63
2021/05/18 02:33:11;;;;;;;;;;;;;;;8.63;100.00;95688.69;1278611;23;19896;-61
2021/05/18 02:33:48;;;;;;;;;;;;;;;8.64;100.00;95685.75;1278582;23;20234;-62
2021/05/18 02:34:18;;;;;;;;;;;;;;;8.63;100.00;95684.16;1279128;23;20307;-62
2021/05/18 02:34:48;;;;;;;;;;;;;;;8.63;100.00;95684.16;1279100;23;19900;-63
2021/05/18 02:35:19;;;;;;;;;;;;;;;8.61;100.00;95686.28;1278964;23;19896;-62
2021/05/18 02:35:49;;;;;;;;;;;;;;;8.61;100.00;95680.97;1278935;23;19954;-62
2021/05/18 02:36:20;;;;;;;;;;;;;;;8.63;100.00;95689.47;1279018;23;19911;-62
2021/05/18 02:36:50;;;;;;;;;;;;;;;8.68;100.00;95688.69;1278930;23;19955;-62
2021/05/18 02:37:20;;;;;;;;;;;;;;;8.67;100.00;95692.41;1278830;23;20246;-62
2021/05/18 02:37:51;;;;;;;;;;;;;;;8.64;100.00;95687.59;1278973;23;19904;-62
2021/05/18 02:38:21;;;;;;;;;;;;;;;8.64;100.00;95680.41;1278964;23;19939;-62
2021/05/18 02:38:51;;;;;;;;;;;;;;;8.59;100.00;95683.88;1278943;23;19911;-62
2021/05/18 02:39:22;;;;;;;;;;;;;;;8.57;100.00;95691.31;1279027;23;19979;-62
2021/05/18 02:39:52;;;;;;;;;;;;;;;8.54;100.00;95694.50;1278946;23;19939;-62
2021/05/18 02:40:24;;;;;;;;;;;;;;;8.50;100.00;95682.00;1279065;23;19911;-62
2021/05/18 02:40:54;;;;;;;;;;;;;;;8.51;100.00;95691.59;1279085;23;19904;-62
2021/05/18 02:41:24;;;;;;;;;;;;;;;8.49;100.00;95688.38;1278994;23;19904;-62
2021/05/18 02:41:54;;;;;;;;;;;;;;;8.50;100.00;95687.34;1278972;23;19908;-62
2021/05/18 02:42:25;;;;;;;;;;;;;;;8.50;100.00;95687.34;1278956;23;19904;-62
2021/05/18 02:42:55;;;;;;;;;;;;;;;8.53;100.00;95684.13;1279023;23;19904;-62
2021/05/18 02:43:31;;;;;;;;;;;;;;;8.53;100.00;95690.25;1278981;23;19908;-62
2021/05/18 02:44:07;;;;;;;;;;;;;;;8.50;100.00;95684.66;1279021;23;19935;-62
2021/05/18 02:46:01;;;;;;;;;;;;;;;8.46;100.00;95687.06;1266802;23;19995;-62
2021/05/18 02:49:24;;;;;;;;;;;;;;;8.50;100.00;95692.66;1279008;23;19990;-62
2021/05/18 02:49:54;;;;;;;;;;;;;;;8.49;100.00;95683.84;1278567;23;19910;-62
2021/05/18 02:50:24;;;;;;;;;;;;;;;8.48;100.00;95687.56;1278597;23;19970;-62
2021/05/18 02:50:55;;;;;;;;;;;;;;;8.49;100.00;95686.50;1272383;23;19923;-62
2021/05/18 02:51:25;;;;;;;;;;;;;;;8.46;100.00;95684.38;1272385;23;19904;-62
2021/05/18 02:51:55;;;;;;;;;;;;;;;8.45;100.00;95682.78;1278621;23;19912;-62
2021/05/18 02:52:26;;;;;;;;;;;;;;;8.46;100.00;95686.25;1278242;23;19904;-62
2021/05/18 02:52:56;;;;;;;;;;;;;;;8.45;100.00;95692.66;1279240;23;19983;-62
2021/05/18 02:53:26;;;;;;;;;;;;;;;8.47;100.00;95690.50;1279035;23;20371;-62
2021/05/18 02:53:57;;;;;;;;;;;;;;;8.48;100.00;95686.78;1279843;23;19962;-62
2021/05/18 02:54:27;;;;;;;;;;;;;;;8.48;100.00;95684.91;1280978;23;19904;-63
2021/05/18 02:54:58;;;;;;;;;;;;;;;8.50;100.00;95690.78;1281366;23;19904;-62
2021/05/18 02:55:38;;;;;;;;;;;;;;;8.51;100.00;95689.72;1281142;23;19994;-63
2021/05/18 02:56:21;;;;;;;;;;;;;;;8.51;100.00;95691.59;1281059;23;19947;-63
2021/05/18 02:57:00;;;;;;;;;;;;;;;8.54;100.00;95693.72;1281387;23;19908;-62
2021/05/18 02:57:35;;;;;;;;;;;;;;;8.54;100.00;95685.72;1280712;23;19911;-62
2021/05/18 02:58:08;;;;;;;;;;;;;;;8.55;100.00;95696.13;1280206;23;19904;-62
2021/05/18 02:58:39;;;;;;;;;;;;;;;8.54;100.00;95691.06;1280982;23;19904;-63
2021/05/18 02:59:27;;;;;;;;;;;;;;;8.55;100.00;95698.78;1280691;23;19904;-63
2021/05/18 02:59:59;;;;;;;;;;;;;;;8.56;100.00;95691.59;1279074;23;19912;-62
2021/05/18 03:00:29;;;;;;;;;;;;;;;8.55;100.00;95687.34;1279229;23;20215;-62
2021/05/18 03:01:00;;;;;;;;;;;;;;;8.58;100.00;95690.25;1279077;23;19942;-62
2021/05/18 03:01:30;;;;;;;;;;;;;;;8.58;100.00;95692.94;1280259;23;19904;-63
2021/05/18 03:02:01;;;;;;;;;;;;;;;8.58;100.00;95692.13;1281301;23;19900;-63
2021/05/18 03:02:31;;;;;;;;;;;;;;;8.58;100.00;95690.25;1281449;23;19987;-62
2021/05/18 03:03:01;;;;;;;;;;;;;;;8.60;100.00;95698.00;1281361;23;19904;-63
2021/05/18 03:03:32;;;;;;;;;;;;;;;8.58;100.00;95698.25;1281169;23;19904;-62